Smith Valley, Nevada Weather observations

Data are for 10 minute period ending at time listed.
 Day   Time   Solar   Ave.   Ave.  Ave.  Vector  Max.   Baro.   Total    
  of    of     Rad.   Air    Rel.  Wind   Wind   Wind  Press.  Precip.   
Year   Day            Temp.  Hum.  Speed  Dir.   Gust                    
2026   (PST)  Kw/m2    F      %     mph   deg.    mph    mb.     in.     
-------------------------------------------------------------------------
 123   14:00   0.59   58.1    51   15.2   216    23.9   849.2    0.00 
 123   14:10   0.28   57.5    53   19.3   191    25.8   849.5    0.00 
 123   14:20   0.23   55.5    57   16.5   184    24.5   849.8    0.00 
 123   14:30   0.17   55.8    52   16.0   202    26.0   849.7    0.00 
 123   14:40   0.09   55.3    57   16.7   188    30.1   849.8    0.01 
 123   14:50   0.07   53.6    61    6.9   215    13.4   849.6    0.00 
 123   15:00   0.12   54.0    64    8.4   264    14.4   848.9    0.01 
 123   15:10   0.20   54.4    68   10.2   269    14.4   848.5    0.00 
 123   15:20   0.21   54.9    67    8.9   255    11.8   848.5    0.00 
 123   15:30   0.15   54.8    65   12.0   187    19.8   848.9    0.00 
 123   15:40   0.15   54.9    60   13.4   202    18.2   848.5    0.00 
 123   15:50   0.16   56.0    56   12.9   226    16.6   848.2    0.00 
 123   16:00   0.21   57.0    52   12.7   232    18.1   848.1    0.00 
 123   16:10   0.27   57.4    49   12.3   255    18.5   847.8    0.00 
 123   16:20   0.39   58.0    48   10.3   263    18.9   847.9    0.00 
 123   16:30   0.44   59.3    47    4.2   171    10.2   848.1    0.00 
 123   16:40   0.36   59.3    50    6.2   130    10.2   848.1    0.00 
 123   16:50   0.15   58.5    50    4.5   130     8.3   848.3    0.00 
 123   17:00   0.10   58.1    48    3.3   110     5.8   848.5    0.00 
 123   17:10   0.09   57.9    50    3.9   102     6.7   848.6    0.00 
 123   17:20   0.08   57.6    51    3.7   108     5.5   848.7    0.00 
 123   17:30   0.09   57.4    52    4.3   144     7.4   848.5    0.00 
 123   17:40   0.08   57.1    51    2.9   160     6.7   848.5    0.00 
 123   17:50   0.06   57.1    51    2.5    67     4.2   848.4    0.00 
 123   18:00   0.04   57.3    48    1.2    10     3.1   848.3    0.00 
 123   18:10   0.04   56.8    51    3.0   319     4.2   848.2    0.00 
 123   18:20   0.03   56.0    53    3.5   298     6.4   848.3    0.00 
 123   18:30   0.02   55.3    60    2.8   231     4.2   848.4    0.00 
 123   18:40   0.01   54.2    64    1.3   132     3.8   848.4    0.00 
 123   18:50   0.00   52.9    65    4.1   136     6.0   848.6    0.00 
 123   19:00   0.00   52.7    64    4.2   145     5.6   848.7    0.00 
 123   19:10   0.00   52.6    62    4.2   163     5.7   848.7    0.00 
 123   19:20   0.00   52.4    67    2.6   186     4.8   848.7    0.00 
 123   19:30   0.00   51.7    69    1.4   193     2.1   848.9    0.00 
 123   19:40   0.00   51.5    70    1.9   148     3.5   849.0    0.00 
 123   19:50   0.00   51.7    66    3.0   141     4.0   849.2    0.00 
 123   20:00   0.00   52.0    68    2.4   199     3.4   849.3    0.00 
 123   20:10   0.00   51.4    70    2.3   183     2.9   849.3    0.00 
 123   20:20   0.00   51.3    70    1.2   191     2.6   849.3    0.00 
 123   20:30   0.00   51.1    71    1.7   122     3.3   849.3    0.00 
 123   20:40   0.00   51.0    69    0.3   143     1.7   849.2    0.00 
 123   20:50   0.00   50.8    71    1.8   248     2.7   849.1    0.00 
 123   21:00   0.00   50.4    72    1.1   169     2.1   849.1    0.00 
 123   21:10   0.00   50.0    74    1.8   201     2.7   849.0    0.00 
 123   21:20   0.00   49.7    74    2.5   198     3.2   849.0    0.00 
 123   21:30   0.00   48.9    76    2.8   266     3.2   849.1    0.00 
 123   21:40   0.00   48.5    78    2.7    49     5.2   849.0    0.00 
 123   21:50   0.00   48.5    77    1.9    99     3.1   849.0    0.00 
 123   22:00   0.00   47.9    80    1.7   200     3.7   849.0    0.00 
 123   22:10   0.00   46.9    84    0.3    87     2.0   848.9    0.00 
 123   22:20   0.00   46.8    81    1.0   315     1.9   848.8    0.00 
 123   22:30   0.00   46.8    80    0.9   237     4.2   848.9    0.00 
 123   22:40   0.00   44.8    84    2.3   191     5.3   849.0    0.00 
 123   22:50   0.00   46.6    77    0.9   190     3.6   849.0    0.00 
 123   23:00   0.00   45.3    80    3.6   130     6.0   849.0    0.00 
 123   23:10   0.00   47.6    71    3.9   173     6.6   848.8    0.00 
 123   23:20   0.00   47.6    71    1.9   271     3.4   848.7    0.00 
 123   23:30   0.00   45.8    77    3.4   301     5.6   848.6    0.00 
 123   23:40   0.00   44.5    82    1.6   208     3.5   848.7    0.00 
 123   23:50   0.00   43.9    83    2.1   169     3.5   848.8    0.00 
 124    0:00   0.00   44.4    80    2.4   121     2.9   848.8    0.00 
 124    0:10   0.00   45.4    77    3.7   139     5.0   848.8    0.00 
 124    0:20   0.00   46.1    74    2.2   132     3.7   848.8    0.00 
 124    0:30   0.00   46.1    73    2.0   277     3.2   848.6    0.00 
 124    0:40   0.00   45.8    76    3.2    29     5.1   848.5    0.00 
 124    0:50   0.00   45.3    77    1.4    10     3.2   848.4    0.00 
 124    1:00   0.00   44.5    79    2.1     4     4.6   848.3    0.00 
 124    1:10   0.00   44.0    79    3.5    13     5.3   848.2    0.00 
 124    1:20   0.00   45.0    75    1.8    23     3.2   848.3    0.00 
 124    1:30   0.00   45.0    75    1.8   273     3.7   848.3    0.00 
 124    1:40   0.00   43.7    80    2.9   230     6.5   848.4    0.00 
 124    1:50   0.00   43.3    83    4.3   266     6.3   848.4    0.00 
 124    2:00   0.00   43.7    81    4.1   284     4.9   848.4    0.00 
 124    2:10   0.00   43.8    80    3.6   280     4.8   848.3    0.00 
 124    2:20   0.00   43.9    79    1.4   156     3.7   848.2    0.00 
 124    2:30   0.00   44.5    79    1.2   146     3.6   848.3    0.00 
 124    2:40   0.00   43.7    82    0.2    26     1.4   848.1    0.00 
 124    2:50   0.00   42.3    86    3.0    70     5.2   848.2    0.00 
 124    3:00   0.00   42.4    86    4.3    74     6.6   848.2    0.00 
 124    3:10   0.00   43.0    84    3.0    98     4.8   848.2    0.00 
 124    3:20   0.00   43.4    80    2.9   112     4.5   848.1    0.00 
 124    3:30   0.00   43.3    81    2.2   275     4.3   848.2    0.00 
 124    3:40   0.00   41.7    88    3.1   315     5.7   848.2    0.00 
 124    3:50   0.00   42.0    86    3.3   351     4.3   848.1    0.00 
 124    4:00   0.00   41.9    85    3.7     2     4.9   848.0    0.00 
 124    4:10   0.00   42.3    83    1.6   353     2.4   848.1    0.00 
 124    4:20   0.00   42.5    83    2.5   334     3.3   848.1    0.00 
 124    4:30   0.00   42.6    82    2.4   309     4.4   848.1    0.00 
 124    4:40   0.00   41.7    87    2.6   282     3.8   848.2    0.00 
 124    4:50   0.00   42.3    83    2.1   288     2.8   848.1    0.00 
 124    5:00   0.00   43.0    84    3.3   269     4.1   848.2    0.00 
 124    5:10   0.00   43.7    79    3.2   265     4.5   848.1    0.00 
 124    5:20   0.01   44.2    78    2.1   280     3.1   848.1    0.00 
 124    5:30   0.01   44.7    76    0.8    11     2.8   848.2    0.00 
 124    5:40   0.02   44.3    83    1.5    92     2.7   848.3    0.00 
 124    5:50   0.02   44.0    82    4.1   101     7.0   848.4    0.00 
 124    6:00   0.03   44.5    80    2.1   101     3.5   848.4    0.00 
 124    6:10   0.07   44.9    83    0.8   194     1.6   848.4    0.00 
 124    6:20   0.13   45.6    84    1.6   105     3.3   848.5    0.00 
 124    6:30   0.13   46.6    82    1.6   114     3.0   848.5    0.00 
 124    6:40   0.11   47.2    80    1.9    57     3.9   848.4    0.00 
 124    6:50   0.09   47.4    79    1.0    89     1.6   848.3    0.00 
 124    7:00   0.20   47.8    79    1.8   219     3.0   848.3    0.00 
 124    7:10   0.22   48.5    75    3.3   198     6.4   848.2    0.00 
 124    7:20   0.17   48.3    80    3.3   178     5.5   848.1    0.00 
 124    7:30   0.16   48.8    76    3.6   147     4.9   848.1    0.00 
 124    7:40   0.18   49.7    72    3.4   150     4.9   847.9    0.00 
 124    7:50   0.18   50.6    69    1.4   311     4.2   847.9    0.00 
 124    8:00   0.22   50.8    68    4.1   346     6.4   848.1    0.00 
 124    8:10   0.23   51.0    69    5.3   338     7.1   848.0    0.00 
 124    8:20   0.18   51.4    65    4.1   336     5.9   848.0    0.00 
 124    8:30   0.14   51.9    61    3.2     2     4.4   848.1    0.00 
 124    8:40   0.14   52.1    63    5.7   348     9.8   848.2    0.00 
 124    8:50   0.25   51.8    64    5.2   356     6.8   848.0    0.00 
 124    9:00   0.55   53.3    62    5.6   318     9.4   847.9    0.00 
 124    9:10   0.73   54.4    59    4.7   322     7.6   847.8    0.00 
 124    9:20   0.99   57.2    52    5.5   322     9.1   847.7    0.00 
 124    9:30   0.78   58.4    50    5.5   333     8.5   847.7    0.00 
 124    9:40   0.48   58.1    48    5.1   338     7.8   847.6    0.00 
 124    9:50   0.40   57.7    49    5.0   336     8.3   847.6    0.00 
 124   10:00   0.38   58.1    47    4.9   329     7.7   847.6    0.00 
 124   10:10   0.34   58.2    46    6.3   352    10.0   847.6    0.00 
 124   10:20   0.30   58.6    45    7.6    17    11.5   847.7    0.00 
 124   10:30   0.22   58.3    46    8.4   351    14.7   847.8    0.00 
 124   10:40   0.37   56.8    53   14.3    12    20.4   847.9    0.00 
 124   10:50   0.52   56.2    56   14.9     4    21.5   848.0    0.00 
 124   11:00   0.92   57.4    53   14.5   354    22.4   847.9    0.00 
 124   11:10   0.59   57.9    50   14.6   354    21.0   847.9    0.00 
 124   11:20   0.50   57.3    50   14.1   346    20.4   847.8    0.00 
 124   11:30   0.44   56.9    51   12.5   347    18.0   847.7    0.00 
 124   11:40   0.52   57.0    51   12.5   356    17.2   847.7    0.00 
 124   11:50   0.59   57.4    48   12.1     1    18.1   847.7    0.00 
 124   12:00   0.84   58.3    44   11.8   358    17.6   847.7    0.00 
 124   12:10   0.95   59.2    42   10.7   347    14.5   847.7    0.00 
 124   12:20   1.48   60.3    38    8.9   345    12.8   847.6    0.00 
 124   12:30   1.35   60.8    38    6.7   328    11.3   847.5    0.00 
 124   12:40   0.96   62.0    38    6.5   296    11.2   847.4    0.00 
 124   12:50   0.51   60.9    40    5.1   315    10.8   847.4    0.00 
 124   13:00   0.75   60.4    41    7.0   324    14.4   847.2    0.00 
 124   13:10   0.93   61.5    39    6.8   347    12.5   847.1    0.00 
 124   13:20   1.00   62.4    38    5.6   337    11.3   847.1    0.00 
 124   13:30   0.45   61.9    38    6.5    32    11.3   846.9    0.00 
 124   13:40   0.40   61.2    42   12.9   288    22.8   846.8    0.00 
 124   13:50   0.28   60.6    44   17.5   275    23.7   846.7    0.00 

Return to Smith Valley graphs page.


Western Regional Climate Center,wrcc@dri.edu